KFRG/FRG METAR and TAF weather

Enter ICAO airport designator
Station Type Date Time Source
KFRG METAR 2019/08/22 14:53 UTC NOAA

KFRG 221453Z VRB03KT 10SM CLR 29/21 A2988 RMK AO2 SLP119 T02890206 51005


Station Type Date Time Source
KFRG Decoded METAR 2019/08/22 14:53 UTC NOAA

Station name not available
Aug 22, 2019 - 10:53 AM EDT / 2019.08.22 1453 UTC
Wind: Variable at 3 MPH (3 KT):0
Visibility: 10 mile(s):0
Sky conditions: clear
Temperature: 84.0 F (28.9 C)
Dew Point: 69.1 F (20.6 C)
Relative Humidity: 60%
Pressure (altimeter): 29.88 in. Hg (1011 hPa)
Pressure tendency: 0.01 inches (0.5 hPa) higher than three hours ago
ob: KFRG 221453Z VRB03KT 10SM CLR 29/21 A2988 RMK AO2 SLP119 T02890206 51005
cycle: 15

Station Type Date Time Source
KFRG TAF UTC NOAA

Error!

Example: see airport list